sensor_id;sensor_type;location;lat;lon;timestamp;pressure;altitude;pressure_sealevel;temperature;humidity
79273;BME280;68718;-19.302;146.788;2023-04-25T00:02:24;101812.64;;;33.29;35.43
79273;BME280;68718;-19.302;146.788;2023-04-25T00:04:50;101812.76;;;33.06;35.21
79273;BME280;68718;-19.302;146.788;2023-04-25T00:07:14;101818.53;;;33.22;34.67
79273;BME280;68718;-19.302;146.788;2023-04-25T00:09:40;101808.97;;;32.41;36.03
79273;BME280;68718;-19.302;146.788;2023-04-25T00:12:06;101812.01;;;34.01;33.30
79273;BME280;68718;-19.302;146.788;2023-04-25T00:14:31;101808.78;;;33.95;33.82
79273;BME280;68718;-19.302;146.788;2023-04-25T00:16:56;101810.17;;;33.79;34.10
79273;BME280;68718;-19.302;146.788;2023-04-25T00:19:22;101803.82;;;33.91;34.06
79273;BME280;68718;-19.302;146.788;2023-04-25T00:21:47;101800.33;;;34.40;32.90
79273;BME280;68718;-19.302;146.788;2023-04-25T00:24:13;101799.40;;;32.99;33.05
79273;BME280;68718;-19.302;146.788;2023-04-25T00:26:38;101796.54;;;34.17;32.37
79273;BME280;68718;-19.302;146.788;2023-04-25T00:29:03;101799.56;;;33.79;32.82
79273;BME280;68718;-19.302;146.788;2023-04-25T00:31:28;101791.54;;;34.52;32.51
79273;BME280;68718;-19.302;146.788;2023-04-25T00:33:54;101794.47;;;34.21;32.56
79273;BME280;68718;-19.302;146.788;2023-04-25T00:36:19;101782.47;;;35.99;30.61
79273;BME280;68718;-19.302;146.788;2023-04-25T00:38:44;101780.99;;;35.62;30.29
79273;BME280;68718;-19.302;146.788;2023-04-25T00:41:10;101783.46;;;35.65;31.81
79273;BME280;68718;-19.302;146.788;2023-04-25T00:43:35;101783.29;;;34.35;33.16
79273;BME280;68718;-19.302;146.788;2023-04-25T00:46:01;101781.93;;;35.41;31.12
79273;BME280;68718;-19.302;146.788;2023-04-25T00:48:26;101778.29;;;34.82;32.58
79273;BME280;68718;-19.302;146.788;2023-04-25T00:50:53;101766.99;;;35.45;31.70
79273;BME280;68718;-19.302;146.788;2023-04-25T00:53:17;101769.41;;;34.32;33.11
79273;BME280;68718;-19.302;146.788;2023-04-25T00:55:42;101761.71;;;34.10;34.13
79273;BME280;68718;-19.302;146.788;2023-04-25T00:58:07;101764.76;;;34.27;33.90
79273;BME280;68718;-19.302;146.788;2023-04-25T01:00:33;101760.32;;;35.29;31.85
79273;BME280;68718;-19.302;146.788;2023-04-25T01:02:58;101756.10;;;35.52;32.35
79273;BME280;68718;-19.302;146.788;2023-04-25T01:05:23;101747.54;;;35.31;32.41
79273;BME280;68718;-19.302;146.788;2023-04-25T01:07:49;101746.46;;;35.03;32.75
79273;BME280;68718;-19.302;146.788;2023-04-25T01:10:15;101746.12;;;34.17;33.60
79273;BME280;68718;-19.302;146.788;2023-04-25T01:12:40;101741.59;;;34.23;33.68
79273;BME280;68718;-19.302;146.788;2023-04-25T01:15:06;101735.58;;;34.36;33.97
79273;BME280;68718;-19.302;146.788;2023-04-25T01:17:31;101724.59;;;35.68;32.07
79273;BME280;68718;-19.302;146.788;2023-04-25T01:19:56;101721.16;;;37.73;29.92
79273;BME280;68718;-19.302;146.788;2023-04-25T01:22:21;101716.48;;;35.25;32.92
79273;BME280;68718;-19.302;146.788;2023-04-25T01:24:47;101725.62;;;36.15;30.74
79273;BME280;68718;-19.302;146.788;2023-04-25T01:27:13;101721.02;;;35.86;31.08
79273;BME280;68718;-19.302;146.788;2023-04-25T01:29:38;101715.68;;;36.23;31.14
79273;BME280;68718;-19.302;146.788;2023-04-25T01:32:04;101716.73;;;34.83;32.74
79273;BME280;68718;-19.302;146.788;2023-04-25T01:34:28;101712.97;;;33.76;34.20
79273;BME280;68718;-19.302;146.788;2023-04-25T01:36:54;101706.48;;;34.28;33.56
79273;BME280;68718;-19.302;146.788;2023-04-25T01:39:20;101706.86;;;34.46;32.86
79273;BME280;68718;-19.302;146.788;2023-04-25T01:41:46;101701.48;;;34.87;32.68
79273;BME280;68718;-19.302;146.788;2023-04-25T01:44:10;101693.39;;;35.49;31.58
79273;BME280;68718;-19.302;146.788;2023-04-25T01:46:36;101693.63;;;35.94;31.69
79273;BME280;68718;-19.302;146.788;2023-04-25T01:49:02;101688.06;;;35.33;31.66
79273;BME280;68718;-19.302;146.788;2023-04-25T01:51:27;101690.34;;;34.74;32.59
79273;BME280;68718;-19.302;146.788;2023-04-25T01:53:53;101681.74;;;35.35;32.23
79273;BME280;68718;-19.302;146.788;2023-04-25T01:56:23;101673.33;;;36.00;31.31
79273;BME280;68718;-19.302;146.788;2023-04-25T01:58:43;101665.76;;;36.29;31.25
79273;BME280;68718;-19.302;146.788;2023-04-25T02:01:08;101666.21;;;35.88;31.83
79273;BME280;68718;-19.302;146.788;2023-04-25T02:03:36;101660.52;;;35.93;31.10
79273;BME280;68718;-19.302;146.788;2023-04-25T02:06:00;101667.27;;;35.53;30.49
79273;BME280;68718;-19.302;146.788;2023-04-25T02:08:24;101667.20;;;35.58;30.45
79273;BME280;68718;-19.302;146.788;2023-04-25T02:10:50;101659.47;;;35.65;31.28
79273;BME280;68718;-19.302;146.788;2023-04-25T02:13:17;101662.64;;;34.67;31.28
79273;BME280;68718;-19.302;146.788;2023-04-25T02:15:41;101659.25;;;35.30;30.72
79273;BME280;68718;-19.302;146.788;2023-04-25T02:18:06;101649.55;;;35.19;31.07
79273;BME280;68718;-19.302;146.788;2023-04-25T02:20:31;101646.46;;;36.15;30.10
79273;BME280;68718;-19.302;146.788;2023-04-25T02:22:57;101649.98;;;34.71;31.54
79273;BME280;68718;-19.302;146.788;2023-04-25T02:25:23;101651.46;;;34.28;31.82
79273;BME280;68718;-19.302;146.788;2023-04-25T02:27:48;101640.97;;;36.06;30.26
79273;BME280;68718;-19.302;146.788;2023-04-25T02:30:14;101633.87;;;35.25;30.73
79273;BME280;68718;-19.302;146.788;2023-04-25T02:32:38;101629.86;;;34.91;31.67
79273;BME280;68718;-19.302;146.788;2023-04-25T02:35:04;101634.15;;;34.58;32.39
79273;BME280;68718;-19.302;146.788;2023-04-25T02:37:29;101621.87;;;35.17;30.61
79273;BME280;68718;-19.302;146.788;2023-04-25T02:39:54;101614.10;;;35.45;31.32
79273;BME280;68718;-19.302;146.788;2023-04-25T02:42:19;101617.13;;;34.91;31.50
79273;BME280;68718;-19.302;146.788;2023-04-25T02:44:45;101605.11;;;35.96;30.17
79273;BME280;68718;-19.302;146.788;2023-04-25T02:47:10;101603.54;;;34.81;32.25
79273;BME280;68718;-19.302;146.788;2023-04-25T02:49:36;101599.27;;;35.33;31.71
79273;BME280;68718;-19.302;146.788;2023-04-25T02:52:01;101586.16;;;36.70;29.53
79273;BME280;68718;-19.302;146.788;2023-04-25T02:54:26;101589.11;;;35.65;30.81
79273;BME280;68718;-19.302;146.788;2023-04-25T02:56:52;101590.72;;;37.33;29.12
79273;BME280;68718;-19.302;146.788;2023-04-25T02:59:17;101591.68;;;36.81;29.39
79273;BME280;68718;-19.302;146.788;2023-04-25T03:01:42;101591.04;;;36.70;29.46
79273;BME280;68718;-19.302;146.788;2023-04-25T03:04:08;101594.16;;;37.13;28.52
79273;BME280;68718;-19.302;146.788;2023-04-25T03:06:33;101579.47;;;36.76;29.68
79273;BME280;68718;-19.302;146.788;2023-04-25T03:08:59;101575.10;;;36.95;29.12
79273;BME280;68718;-19.302;146.788;2023-04-25T03:11:25;101570.86;;;37.20;28.47
79273;BME280;68718;-19.302;146.788;2023-04-25T03:13:49;101568.43;;;36.68;29.16
79273;BME280;68718;-19.302;146.788;2023-04-25T03:16:15;101574.83;;;36.60;28.97
79273;BME280;68718;-19.302;146.788;2023-04-25T03:18:40;101557.58;;;37.20;28.39
79273;BME280;68718;-19.302;146.788;2023-04-25T03:21:05;101555.33;;;36.60;28.82
79273;BME280;68718;-19.302;146.788;2023-04-25T03:23:31;101556.11;;;37.78;27.69
79273;BME280;68718;-19.302;146.788;2023-04-25T03:25:56;101554.30;;;36.65;28.32
79273;BME280;68718;-19.302;146.788;2023-04-25T03:28:22;101551.92;;;35.77;29.68
79273;BME280;68718;-19.302;146.788;2023-04-25T03:30:47;101550.62;;;36.63;29.00
79273;BME280;68718;-19.302;146.788;2023-04-25T03:33:13;101559.28;;;34.81;29.79
79273;BME280;68718;-19.302;146.788;2023-04-25T03:35:38;101557.94;;;36.81;28.23
79273;BME280;68718;-19.302;146.788;2023-04-25T03:38:04;101553.27;;;37.68;26.68
79273;BME280;68718;-19.302;146.788;2023-04-25T03:40:29;101549.95;;;37.90;26.87
79273;BME280;68718;-19.302;146.788;2023-04-25T03:42:54;101554.37;;;37.78;28.35
79273;BME280;68718;-19.302;146.788;2023-04-25T03:45:20;101550.43;;;37.27;27.89
79273;BME280;68718;-19.302;146.788;2023-04-25T03:47:45;101549.99;;;36.59;29.06
79273;BME280;68718;-19.302;146.788;2023-04-25T03:50:11;101540.52;;;36.88;27.85
79273;BME280;68718;-19.302;146.788;2023-04-25T03:52:36;101537.00;;;36.96;28.45
79273;BME280;68718;-19.302;146.788;2023-04-25T03:55:01;101533.81;;;38.72;26.98
79273;BME280;68718;-19.302;146.788;2023-04-25T03:57:27;101539.94;;;37.94;27.85
79273;BME280;68718;-19.302;146.788;2023-04-25T03:59:52;101537.15;;;38.32;26.90
79273;BME280;68718;-19.302;146.788;2023-04-25T04:02:18;101522.50;;;38.34;26.68
79273;BME280;68718;-19.302;146.788;2023-04-25T04:04:44;101527.35;;;37.93;27.90
79273;BME280;68718;-19.302;146.788;2023-04-25T04:07:09;101517.48;;;38.78;26.61
79273;BME280;68718;-19.302;146.788;2023-04-25T04:09:34;101519.75;;;39.24;26.88
79273;BME280;68718;-19.302;146.788;2023-04-25T04:11:59;101525.87;;;37.92;26.92
79273;BME280;68718;-19.302;146.788;2023-04-25T04:14:24;101523.07;;;37.39;27.92
79273;BME280;68718;-19.302;146.788;2023-04-25T04:16:52;101516.42;;;38.55;26.73
79273;BME280;68718;-19.302;146.788;2023-04-25T04:19:16;101505.01;;;39.46;26.12
79273;BME280;68718;-19.302;146.788;2023-04-25T04:21:41;101502.91;;;39.59;26.04
79273;BME280;68718;-19.302;146.788;2023-04-25T04:24:06;101504.73;;;38.85;26.87
79273;BME280;68718;-19.302;146.788;2023-04-25T04:26:33;101511.49;;;37.33;28.04
79273;BME280;68718;-19.302;146.788;2023-04-25T04:28:57;101516.78;;;36.87;28.78
79273;BME280;68718;-19.302;146.788;2023-04-25T04:31:24;101511.91;;;36.64;29.25
79273;BME280;68718;-19.302;146.788;2023-04-25T04:33:48;101507.19;;;35.95;29.83
79273;BME280;68718;-19.302;146.788;2023-04-25T04:36:13;101509.97;;;37.17;28.86
79273;BME280;68718;-19.302;146.788;2023-04-25T04:38:39;101503.86;;;37.89;27.97
79273;BME280;68718;-19.302;146.788;2023-04-25T04:41:04;101504.34;;;37.00;27.92
79273;BME280;68718;-19.302;146.788;2023-04-25T04:43:40;101498.52;;;37.00;28.55
79273;BME280;68718;-19.302;146.788;2023-04-25T04:45:55;101494.11;;;37.45;28.51
79273;BME280;68718;-19.302;146.788;2023-04-25T04:48:21;101499.27;;;37.31;28.76
79273;BME280;68718;-19.302;146.788;2023-04-25T04:50:45;101501.22;;;36.08;29.68
79273;BME280;68718;-19.302;146.788;2023-04-25T04:53:11;101499.81;;;35.91;30.66
79273;BME280;68718;-19.302;146.788;2023-04-25T04:55:36;101501.56;;;35.98;29.73
79273;BME280;68718;-19.302;146.788;2023-04-25T04:58:02;101494.55;;;35.12;30.55
79273;BME280;68718;-19.302;146.788;2023-04-25T05:00:27;101499.57;;;35.86;29.94
79273;BME280;68718;-19.302;146.788;2023-04-25T05:02:52;101494.07;;;36.00;29.15
79273;BME280;68718;-19.302;146.788;2023-04-25T05:05:17;101490.98;;;36.92;28.07
79273;BME280;68718;-19.302;146.788;2023-04-25T05:07:43;101491.73;;;36.69;28.24
79273;BME280;68718;-19.302;146.788;2023-04-25T05:10:10;101493.38;;;35.44;28.42
79273;BME280;68718;-19.302;146.788;2023-04-25T05:12:33;101493.77;;;36.12;28.73
79273;BME280;68718;-19.302;146.788;2023-04-25T05:14:59;101493.10;;;35.87;28.79
79273;BME280;68718;-19.302;146.788;2023-04-25T05:17:24;101489.01;;;36.25;28.69
79273;BME280;68718;-19.302;146.788;2023-04-25T05:19:50;101492.60;;;36.86;28.36
79273;BME280;68718;-19.302;146.788;2023-04-25T05:22:15;101493.96;;;37.15;28.16
79273;BME280;68718;-19.302;146.788;2023-04-25T05:24:40;101497.54;;;36.90;28.31
79273;BME280;68718;-19.302;146.788;2023-04-25T05:27:05;101500.15;;;36.33;28.90
79273;BME280;68718;-19.302;146.788;2023-04-25T05:29:31;101504.56;;;35.90;29.43
79273;BME280;68718;-19.302;146.788;2023-04-25T05:31:57;101499.98;;;34.92;30.80
79273;BME280;68718;-19.302;146.788;2023-04-25T05:34:22;101500.44;;;36.20;30.04
79273;BME280;68718;-19.302;146.788;2023-04-25T05:36:47;101506.51;;;37.01;28.85
79273;BME280;68718;-19.302;146.788;2023-04-25T05:39:12;101502.44;;;36.47;29.61
79273;BME280;68718;-19.302;146.788;2023-04-25T05:41:38;101499.63;;;36.38;30.03
79273;BME280;68718;-19.302;146.788;2023-04-25T05:44:03;101497.81;;;36.62;30.23
79273;BME280;68718;-19.302;146.788;2023-04-25T05:46:29;101496.39;;;36.10;30.36
79273;BME280;68718;-19.302;146.788;2023-04-25T05:48:54;101503.54;;;37.28;29.68
79273;BME280;68718;-19.302;146.788;2023-04-25T05:51:20;101505.79;;;37.63;28.82
79273;BME280;68718;-19.302;146.788;2023-04-25T05:53:45;101504.19;;;36.73;30.11
79273;BME280;68718;-19.302;146.788;2023-04-25T05:56:10;101501.58;;;37.48;29.45
79273;BME280;68718;-19.302;146.788;2023-04-25T05:58:36;101503.00;;;36.27;29.95
79273;BME280;68718;-19.302;146.788;2023-04-25T06:01:01;101507.39;;;37.49;29.13
79273;BME280;68718;-19.302;146.788;2023-04-25T06:03:26;101512.70;;;36.21;30.45
79273;BME280;68718;-19.302;146.788;2023-04-25T06:05:51;101511.73;;;36.26;29.48
79273;BME280;68718;-19.302;146.788;2023-04-25T06:08:17;101511.02;;;36.08;30.04
79273;BME280;68718;-19.302;146.788;2023-04-25T06:10:42;101512.30;;;37.33;28.55
79273;BME280;68718;-19.302;146.788;2023-04-25T06:13:07;101508.42;;;35.93;29.35
79273;BME280;68718;-19.302;146.788;2023-04-25T06:15:33;101508.53;;;36.52;29.22
79273;BME280;68718;-19.302;146.788;2023-04-25T06:17:58;101512.36;;;35.83;29.74
79273;BME280;68718;-19.302;146.788;2023-04-25T06:20:24;101510.22;;;35.67;30.01
79273;BME280;68718;-19.302;146.788;2023-04-25T06:22:49;101511.40;;;35.80;30.07
79273;BME280;68718;-19.302;146.788;2023-04-25T06:25:15;101509.22;;;35.14;30.95
79273;BME280;68718;-19.302;146.788;2023-04-25T06:27:40;101513.27;;;35.92;30.18
79273;BME280;68718;-19.302;146.788;2023-04-25T06:30:07;101513.41;;;34.76;31.66
79273;BME280;68718;-19.302;146.788;2023-04-25T06:32:31;101519.93;;;34.45;31.80
79273;BME280;68718;-19.302;146.788;2023-04-25T06:34:56;101518.02;;;33.95;32.35
79273;BME280;68718;-19.302;146.788;2023-04-25T06:37:21;101518.29;;;35.28;31.19
79273;BME280;68718;-19.302;146.788;2023-04-25T06:39:47;101520.91;;;35.83;30.59
79273;BME280;68718;-19.302;146.788;2023-04-25T06:42:12;101527.02;;;35.98;30.73
79273;BME280;68718;-19.302;146.788;2023-04-25T06:44:38;101529.35;;;36.78;29.51
79273;BME280;68718;-19.302;146.788;2023-04-25T06:47:03;101530.24;;;36.39;29.39
79273;BME280;68718;-19.302;146.788;2023-04-25T06:49:28;101532.17;;;34.91;31.77
79273;BME280;68718;-19.302;146.788;2023-04-25T06:51:54;101535.96;;;35.08;31.45
79273;BME280;68718;-19.302;146.788;2023-04-25T06:54:19;101543.89;;;33.83;33.20
79273;BME280;68718;-19.302;146.788;2023-04-25T06:56:45;101539.80;;;34.99;31.77
79273;BME280;68718;-19.302;146.788;2023-04-25T06:59:10;101540.30;;;35.42;31.44
79273;BME280;68718;-19.302;146.788;2023-04-25T07:01:35;101539.90;;;34.98;31.86
79273;BME280;68718;-19.302;146.788;2023-04-25T07:04:01;101540.10;;;35.10;31.80
79273;BME280;68718;-19.302;146.788;2023-04-25T07:06:26;101540.61;;;34.80;32.28
79273;BME280;68718;-19.302;146.788;2023-04-25T07:08:52;101535.10;;;35.13;31.78
79273;BME280;68718;-19.302;146.788;2023-04-25T07:11:17;101538.94;;;34.47;32.55
79273;BME280;68718;-19.302;146.788;2023-04-25T07:13:42;101539.75;;;35.35;31.66
79273;BME280;68718;-19.302;146.788;2023-04-25T07:16:08;101548.40;;;34.64;32.31
79273;BME280;68718;-19.302;146.788;2023-04-25T07:18:33;101547.21;;;35.17;32.07
79273;BME280;68718;-19.302;146.788;2023-04-25T07:20:59;101550.64;;;36.19;30.71
79273;BME280;68718;-19.302;146.788;2023-04-25T07:23:26;101550.39;;;35.55;31.04
79273;BME280;68718;-19.302;146.788;2023-04-25T07:25:50;101553.30;;;35.95;30.68
79273;BME280;68718;-19.302;146.788;2023-04-25T07:28:17;101555.31;;;35.67;31.32
79273;BME280;68718;-19.302;146.788;2023-04-25T07:30:41;101558.59;;;35.12;31.42
79273;BME280;68718;-19.302;146.788;2023-04-25T07:33:06;101566.04;;;34.78;32.76
79273;BME280;68718;-19.302;146.788;2023-04-25T07:35:32;101567.28;;;35.44;32.33
79273;BME280;68718;-19.302;146.788;2023-04-25T07:37:57;101569.31;;;35.37;31.52
79273;BME280;68718;-19.302;146.788;2023-04-25T07:40:23;101575.60;;;36.05;31.47
79273;BME280;68718;-19.302;146.788;2023-04-25T07:42:48;101577.14;;;34.65;32.20
79273;BME280;68718;-19.302;146.788;2023-04-25T07:45:13;101576.66;;;36.34;31.08
79273;BME280;68718;-19.302;146.788;2023-04-25T07:47:39;101578.24;;;34.93;32.37
79273;BME280;68718;-19.302;146.788;2023-04-25T07:50:04;101580.28;;;36.03;31.44
79273;BME280;68718;-19.302;146.788;2023-04-25T07:52:29;101583.26;;;36.06;31.26
79273;BME280;68718;-19.302;146.788;2023-04-25T07:54:54;101585.67;;;36.62;31.26
79273;BME280;68718;-19.302;146.788;2023-04-25T07:57:20;101591.38;;;36.58;30.84
79273;BME280;68718;-19.302;146.788;2023-04-25T07:59:45;101592.98;;;36.42;30.35
79273;BME280;68718;-19.302;146.788;2023-04-25T08:02:11;101597.12;;;36.48;30.41
79273;BME280;68718;-19.302;146.788;2023-04-25T08:04:36;101597.73;;;36.02;31.27
79273;BME280;68718;-19.302;146.788;2023-04-25T08:07:01;101598.14;;;35.67;31.47
79273;BME280;68718;-19.302;146.788;2023-04-25T08:09:27;101602.31;;;34.65;33.40
79273;BME280;68718;-19.302;146.788;2023-04-25T08:11:53;101602.62;;;35.19;32.57
79273;BME280;68718;-19.302;146.788;2023-04-25T08:14:18;101606.95;;;35.89;31.55
79273;BME280;68718;-19.302;146.788;2023-04-25T08:16:44;101609.49;;;36.33;32.13
79273;BME280;68718;-19.302;146.788;2023-04-25T08:19:09;101616.99;;;35.88;31.40
79273;BME280;68718;-19.302;146.788;2023-04-25T08:21:34;101619.39;;;35.60;31.72
79273;BME280;68718;-19.302;146.788;2023-04-25T08:24:00;101625.93;;;34.95;32.66
79273;BME280;68718;-19.302;146.788;2023-04-25T08:26:28;101634.44;;;34.91;32.07
79273;BME280;68718;-19.302;146.788;2023-04-25T08:28:52;101634.50;;;34.98;32.19
79273;BME280;68718;-19.302;146.788;2023-04-25T08:31:16;101636.24;;;35.93;30.76
79273;BME280;68718;-19.302;146.788;2023-04-25T08:33:41;101638.54;;;35.48;31.75
79273;BME280;68718;-19.302;146.788;2023-04-25T08:36:06;101641.61;;;35.25;32.01
79273;BME280;68718;-19.302;146.788;2023-04-25T08:38:32;101644.69;;;35.95;30.79
79273;BME280;68718;-19.302;146.788;2023-04-25T08:40:57;101649.05;;;35.44;31.63
79273;BME280;68718;-19.302;146.788;2023-04-25T08:43:24;101647.91;;;35.68;31.18
79273;BME280;68718;-19.302;146.788;2023-04-25T08:45:48;101647.83;;;35.95;30.75
79273;BME280;68718;-19.302;146.788;2023-04-25T08:48:15;101649.85;;;35.20;31.82
79273;BME280;68718;-19.302;146.788;2023-04-25T08:50:40;101652.45;;;36.37;30.57
79273;BME280;68718;-19.302;146.788;2023-04-25T08:53:05;101648.75;;;35.86;30.86
79273;BME280;68718;-19.302;146.788;2023-04-25T08:55:30;101652.84;;;36.02;30.82
79273;BME280;68718;-19.302;146.788;2023-04-25T08:57:56;101661.99;;;35.37;31.74
79273;BME280;68718;-19.302;146.788;2023-04-25T09:00:21;101663.64;;;35.52;31.95
79273;BME280;68718;-19.302;146.788;2023-04-25T09:02:46;101666.39;;;34.70;32.57
79273;BME280;68718;-19.302;146.788;2023-04-25T09:05:13;101668.55;;;35.76;31.96
79273;BME280;68718;-19.302;146.788;2023-04-25T09:07:37;101668.65;;;36.24;31.55
79273;BME280;68718;-19.302;146.788;2023-04-25T09:10:03;101677.16;;;33.51;35.12
79273;BME280;68718;-19.302;146.788;2023-04-25T09:12:30;101678.11;;;35.24;32.72
79273;BME280;68718;-19.302;146.788;2023-04-25T09:15:03;101676.45;;;35.07;32.95
79273;BME280;68718;-19.302;146.788;2023-04-25T09:17:19;101675.76;;;35.25;32.90
79273;BME280;68718;-19.302;146.788;2023-04-25T09:19:45;101676.70;;;35.09;32.94
79273;BME280;68718;-19.302;146.788;2023-04-25T09:22:09;101679.39;;;35.57;32.41
79273;BME280;68718;-19.302;146.788;2023-04-25T09:24:37;101684.36;;;36.48;31.30
79273;BME280;68718;-19.302;146.788;2023-04-25T09:27:00;101687.92;;;36.64;31.17
79273;BME280;68718;-19.302;146.788;2023-04-25T09:29:29;101694.69;;;36.06;31.58
79273;BME280;68718;-19.302;146.788;2023-04-25T09:31:51;101698.76;;;36.54;31.19
79273;BME280;68718;-19.302;146.788;2023-04-25T09:34:15;101703.73;;;36.66;31.56
79273;BME280;68718;-19.302;146.788;2023-04-25T09:36:42;101707.26;;;35.50;32.59
79273;BME280;68718;-19.302;146.788;2023-04-25T09:39:12;101713.33;;;36.17;31.91
79273;BME280;68718;-19.302;146.788;2023-04-25T09:41:33;101718.25;;;35.74;32.46
79273;BME280;68718;-19.302;146.788;2023-04-25T09:43:59;101719.90;;;36.27;31.53
79273;BME280;68718;-19.302;146.788;2023-04-25T09:46:25;101725.26;;;35.94;32.08
79273;BME280;68718;-19.302;146.788;2023-04-25T09:48:50;101723.57;;;36.35;31.48
79273;BME280;68718;-19.302;146.788;2023-04-25T09:51:15;101728.18;;;36.19;31.24
79273;BME280;68718;-19.302;146.788;2023-04-25T09:53:39;101726.81;;;36.21;31.24
79273;BME280;68718;-19.302;146.788;2023-04-25T09:56:07;101733.70;;;36.65;30.94
79273;BME280;68718;-19.302;146.788;2023-04-25T09:58:30;101735.49;;;36.95;30.96
79273;BME280;68718;-19.302;146.788;2023-04-25T10:00:58;101737.09;;;37.11;30.48
79273;BME280;68718;-19.302;146.788;2023-04-25T10:03:21;101738.26;;;36.76;30.84
79273;BME280;68718;-19.302;146.788;2023-04-25T10:05:48;101740.87;;;36.30;31.59
79273;BME280;68718;-19.302;146.788;2023-04-25T10:08:13;101737.63;;;35.87;31.82
79273;BME280;68718;-19.302;146.788;2023-04-25T10:10:38;101737.08;;;36.15;31.50
79273;BME280;68718;-19.302;146.788;2023-04-25T10:13:05;101740.86;;;35.96;32.03
79273;BME280;68718;-19.302;146.788;2023-04-25T10:15:28;101746.47;;;35.90;32.34
79273;BME280;68718;-19.302;146.788;2023-04-25T10:17:54;101749.09;;;36.17;31.62
79273;BME280;68718;-19.302;146.788;2023-04-25T10:20:20;101754.70;;;35.81;32.51
79273;BME280;68718;-19.302;146.788;2023-04-25T10:22:45;101761.94;;;34.56;33.71
79273;BME280;68718;-19.302;146.788;2023-04-25T10:25:09;101753.08;;;35.58;33.00
79273;BME280;68718;-19.302;146.788;2023-04-25T10:27:35;101762.10;;;34.97;33.58
79273;BME280;68718;-19.302;146.788;2023-04-25T10:30:05;101770.49;;;34.19;34.77
79273;BME280;68718;-19.302;146.788;2023-04-25T10:32:25;101772.44;;;33.39;35.89
79273;BME280;68718;-19.302;146.788;2023-04-25T10:34:50;101773.20;;;33.34;36.29
79273;BME280;68718;-19.302;146.788;2023-04-25T10:37:16;101774.39;;;33.02;36.05
79273;BME280;68718;-19.302;146.788;2023-04-25T10:39:43;101778.73;;;35.03;33.39
79273;BME280;68718;-19.302;146.788;2023-04-25T10:42:06;101780.76;;;34.92;33.31
79273;BME280;68718;-19.302;146.788;2023-04-25T10:44:31;101778.18;;;32.89;35.77
79273;BME280;68718;-19.302;146.788;2023-04-25T10:46:59;101778.49;;;32.94;36.45
79273;BME280;68718;-19.302;146.788;2023-04-25T10:49:29;101777.07;;;34.22;34.44
79273;BME280;68718;-19.302;146.788;2023-04-25T10:51:46;101781.60;;;32.96;35.93
79273;BME280;68718;-19.302;146.788;2023-04-25T10:54:12;101785.96;;;34.12;34.42
79273;BME280;68718;-19.302;146.788;2023-04-25T10:56:40;101788.43;;;31.72;38.15
79273;BME280;68718;-19.302;146.788;2023-04-25T10:59:06;101779.13;;;32.58;37.08
79273;BME280;68718;-19.302;146.788;2023-04-25T11:01:37;101785.34;;;33.69;35.09
79273;BME280;68718;-19.302;146.788;2023-04-25T11:03:58;101786.48;;;31.99;38.09
79273;BME280;68718;-19.302;146.788;2023-04-25T11:06:26;101785.62;;;31.59;38.19
79273;BME280;68718;-19.302;146.788;2023-04-25T11:08:49;101779.66;;;32.53;37.94
79273;BME280;68718;-19.302;146.788;2023-04-25T11:11:10;101775.07;;;32.40;37.94
79273;BME280;68718;-19.302;146.788;2023-04-25T11:13:35;101776.74;;;32.88;37.12
79273;BME280;68718;-19.302;146.788;2023-04-25T11:16:00;101781.17;;;32.98;37.46
79273;BME280;68718;-19.302;146.788;2023-04-25T11:18:27;101789.10;;;31.46;39.05
79273;BME280;68718;-19.302;146.788;2023-04-25T11:20:51;101792.93;;;31.79;39.28
79273;BME280;68718;-19.302;146.788;2023-04-25T11:23:18;101789.34;;;31.83;39.28
79273;BME280;68718;-19.302;146.788;2023-04-25T11:25:43;101786.51;;;31.91;38.83
79273;BME280;68718;-19.302;146.788;2023-04-25T11:28:08;101780.19;;;32.89;37.57
79273;BME280;68718;-19.302;146.788;2023-04-25T11:30:33;101780.01;;;32.06;37.91
79273;BME280;68718;-19.302;146.788;2023-04-25T11:32:59;101773.56;;;32.69;37.01
79273;BME280;68718;-19.302;146.788;2023-04-25T11:35:24;101771.11;;;31.41;39.42
79273;BME280;68718;-19.302;146.788;2023-04-25T11:37:49;101765.43;;;32.12;38.32
79273;BME280;68718;-19.302;146.788;2023-04-25T11:40:14;101760.94;;;31.08;40.49
79273;BME280;68718;-19.302;146.788;2023-04-25T11:42:43;101762.86;;;31.65;39.26
79273;BME280;68718;-19.302;146.788;2023-04-25T11:45:07;101761.34;;;30.18;41.63
79273;BME280;68718;-19.302;146.788;2023-04-25T11:47:31;101757.25;;;31.07;40.14
79273;BME280;68718;-19.302;146.788;2023-04-25T11:49:59;101753.65;;;32.07;37.79
79273;BME280;68718;-19.302;146.788;2023-04-25T11:52:22;101757.69;;;32.06;38.49
79273;BME280;68718;-19.302;146.788;2023-04-25T11:54:47;101756.89;;;31.51;39.48
79273;BME280;68718;-19.302;146.788;2023-04-25T11:57:13;101752.10;;;31.80;38.24
79273;BME280;68718;-19.302;146.788;2023-04-25T11:59:37;101753.48;;;31.18;39.52
79273;BME280;68718;-19.302;146.788;2023-04-25T12:02:03;101747.97;;;31.94;38.20
79273;BME280;68718;-19.302;146.788;2023-04-25T12:04:32;101747.95;;;31.93;37.74
79273;BME280;68718;-19.302;146.788;2023-04-25T12:06:54;101747.16;;;30.90;39.79
79273;BME280;68718;-19.302;146.788;2023-04-25T12:09:20;101743.04;;;30.54;40.74
79273;BME280;68718;-19.302;146.788;2023-04-25T12:11:45;101735.59;;;31.71;38.60